createdAt,value
2018-12-12T00:01:16.535Z,99.90
2018-12-12T00:04:19.758Z,99.90
2018-12-12T00:07:23.104Z,99.90
2018-12-12T00:10:26.331Z,99.90
2018-12-12T00:13:29.543Z,99.90
2018-12-12T00:16:32.795Z,99.90
2018-12-12T00:19:36.038Z,99.90
2018-12-12T00:22:39.248Z,99.90
2018-12-12T00:25:42.478Z,99.90
2018-12-12T00:28:45.736Z,99.90
2018-12-12T00:31:48.991Z,99.90
2018-12-12T00:34:52.212Z,99.90
2018-12-12T00:37:55.450Z,99.90
2018-12-12T00:40:58.673Z,99.90
2018-12-12T00:44:02.107Z,99.90
2018-12-12T00:47:05.689Z,99.90
2018-12-12T00:50:09.100Z,99.90
2018-12-12T00:53:12.306Z,99.90
2018-12-12T00:56:15.531Z,99.90
2018-12-12T00:59:18.744Z,99.90
2018-12-12T01:02:21.960Z,99.90
2018-12-12T01:05:25.210Z,99.90
2018-12-12T01:08:28.433Z,99.90
2018-12-12T01:11:37.155Z,99.90
2018-12-12T01:14:40.492Z,99.90
2018-12-12T01:17:43.706Z,99.90
2018-12-12T01:20:46.962Z,99.90
2018-12-12T01:23:50.180Z,99.90
2018-12-12T01:26:53.408Z,99.90
2018-12-12T01:29:56.644Z,99.90
2018-12-12T01:32:59.950Z,99.90
2018-12-12T01:36:03.199Z,99.90
2018-12-12T01:39:07.112Z,99.90
2018-12-12T01:42:10.335Z,99.90
2018-12-12T01:45:13.593Z,99.90
2018-12-12T01:48:16.842Z,99.90
2018-12-12T01:51:20.113Z,99.90
2018-12-12T01:54:23.316Z,99.90
2018-12-12T01:57:26.606Z,99.90
2018-12-12T02:00:29.843Z,99.90
2018-12-12T02:03:33.058Z,99.90
2018-12-12T02:06:36.286Z,99.90
2018-12-12T02:09:39.503Z,99.90
2018-12-12T02:12:42.727Z,99.90
2018-12-12T02:15:45.976Z,99.90
2018-12-12T02:18:49.184Z,99.90
2018-12-12T02:21:52.575Z,99.90
2018-12-12T02:24:55.888Z,99.90
2018-12-12T02:27:59.104Z,99.90
2018-12-12T02:31:02.769Z,99.90
2018-12-12T02:34:06.155Z,99.90
2018-12-12T02:37:09.660Z,99.90
2018-12-12T02:40:12.964Z,99.90
2018-12-12T02:43:16.268Z,99.90
2018-12-12T02:46:19.489Z,99.90
2018-12-12T02:49:22.788Z,99.90
2018-12-12T02:52:26.055Z,99.90
2018-12-12T02:55:29.644Z,99.90
2018-12-12T02:58:32.864Z,99.90
2018-12-12T03:01:36.231Z,99.90
2018-12-12T03:04:39.527Z,99.90
2018-12-12T03:07:42.766Z,99.90
2018-12-12T03:10:46.079Z,99.90
2018-12-12T03:13:49.301Z,99.90
2018-12-12T03:16:52.519Z,99.90
2018-12-12T03:19:55.763Z,99.90
2018-12-12T03:22:59.029Z,99.90
2018-12-12T03:26:02.282Z,99.90
2018-12-12T03:29:05.580Z,99.90
2018-12-12T03:32:08.815Z,99.90
2018-12-12T03:35:12.187Z,99.90
2018-12-12T03:38:15.405Z,99.90
2018-12-12T03:41:18.643Z,99.90
2018-12-12T03:44:21.870Z,99.90
2018-12-12T03:47:25.118Z,99.90
2018-12-12T03:50:29.100Z,99.90
2018-12-12T03:53:32.397Z,99.90
2018-12-12T03:56:35.633Z,99.90
2018-12-12T03:59:39.560Z,99.90
2018-12-12T04:02:43.101Z,99.90
2018-12-12T04:05:46.404Z,99.90
2018-12-12T04:08:50.108Z,99.90
2018-12-12T04:11:53.351Z,99.90
2018-12-12T04:14:56.699Z,99.90
2018-12-12T04:17:59.916Z,99.90
2018-12-12T04:21:03.140Z,99.90
2018-12-12T04:24:06.360Z,99.90
2018-12-12T04:27:09.688Z,99.90
2018-12-12T04:30:13.088Z,99.90
2018-12-12T04:33:16.318Z,99.90
2018-12-12T04:36:19.543Z,99.90
2018-12-12T04:39:23.523Z,99.90
2018-12-12T04:42:26.804Z,99.90
2018-12-12T04:45:30.597Z,99.90
2018-12-12T04:48:33.902Z,99.90
2018-12-12T04:51:37.220Z,99.90
2018-12-12T04:54:40.470Z,99.90
2018-12-12T04:57:44.857Z,99.90
2018-12-12T05:00:48.322Z,99.90
2018-12-12T05:03:51.559Z,99.90
2018-12-12T05:06:54.815Z,99.90
2018-12-12T05:09:58.021Z,99.90
2018-12-12T05:13:01.242Z,99.90
2018-12-12T05:16:04.517Z,99.90
2018-12-12T05:19:07.737Z,99.90
2018-12-12T05:22:10.979Z,99.90
2018-12-12T05:25:14.789Z,99.90
2018-12-12T05:28:18.085Z,99.90
2018-12-12T05:31:21.381Z,99.90
2018-12-12T05:34:24.599Z,99.90
2018-12-12T05:37:27.976Z,99.90
2018-12-12T05:40:31.500Z,99.90
2018-12-12T05:43:34.720Z,99.90
2018-12-12T05:46:41.848Z,99.90
2018-12-12T05:49:43.141Z,99.90
2018-12-12T05:52:46.388Z,99.90
2018-12-12T05:55:49.718Z,99.90
2018-12-12T05:58:52.938Z,99.90
2018-12-12T06:01:56.171Z,99.90
2018-12-12T06:04:59.391Z,99.90
2018-12-12T06:08:02.606Z,99.90
2018-12-12T06:11:05.897Z,99.90
2018-12-12T06:14:09.115Z,99.90
2018-12-12T06:17:12.380Z,99.90
2018-12-12T06:20:15.788Z,99.90
2018-12-12T06:23:19.021Z,99.90
2018-12-12T06:26:22.244Z,99.90
2018-12-12T06:29:25.479Z,99.90
2018-12-12T06:32:28.729Z,99.90
2018-12-12T06:35:32.523Z,99.90
2018-12-12T06:38:35.934Z,99.90
2018-12-12T06:41:39.190Z,99.90
2018-12-12T06:44:42.406Z,99.90
2018-12-12T06:47:45.652Z,99.90
2018-12-12T06:50:49.077Z,99.90
2018-12-12T06:53:52.346Z,99.90
2018-12-12T06:56:55.573Z,99.90
2018-12-12T06:59:58.861Z,99.90
2018-12-12T07:03:02.099Z,99.90
2018-12-12T07:06:05.348Z,99.90
2018-12-12T07:09:08.632Z,99.90
2018-12-12T07:12:11.889Z,99.90
2018-12-12T07:15:15.120Z,99.90
2018-12-12T07:18:18.370Z,99.90
2018-12-12T07:21:21.628Z,99.90
2018-12-12T07:24:24.829Z,99.90
2018-12-12T07:27:28.061Z,99.90
2018-12-12T07:30:31.310Z,99.90
2018-12-12T07:33:34.614Z,99.90
2018-12-12T07:36:37.848Z,99.90
2018-12-12T07:39:41.065Z,99.90
2018-12-12T07:42:44.400Z,99.90
2018-12-12T07:45:47.674Z,99.90
2018-12-12T07:48:50.897Z,99.90
2018-12-12T07:51:54.189Z,99.90
2018-12-12T07:54:57.447Z,99.90
2018-12-12T07:58:00.766Z,99.90
2018-12-12T08:01:04.066Z,99.90
2018-12-12T08:04:08.072Z,99.90
2018-12-12T08:07:11.377Z,99.90
2018-12-12T08:10:14.676Z,99.90
2018-12-12T08:13:17.987Z,99.90
2018-12-12T08:16:21.475Z,99.90
2018-12-12T08:19:24.873Z,99.90
2018-12-12T08:22:28.168Z,99.90
2018-12-12T08:25:31.768Z,99.90
2018-12-12T08:28:35.787Z,99.90
2018-12-12T08:31:39.092Z,99.90
2018-12-12T08:34:42.385Z,99.90
2018-12-12T08:37:45.684Z,99.90
2018-12-12T08:40:49.595Z,99.90
2018-12-12T08:43:52.820Z,99.90
2018-12-12T08:46:56.276Z,99.90
2018-12-12T08:49:59.503Z,99.90
2018-12-12T08:53:04.108Z,99.90
2018-12-12T08:56:07.361Z,99.90
2018-12-12T08:59:10.599Z,99.90
2018-12-12T09:02:14.768Z,99.90
2018-12-12T09:05:18.121Z,99.90
2018-12-12T09:08:22.103Z,99.90
2018-12-12T09:11:25.344Z,99.90
2018-12-12T09:14:29.445Z,99.90
2018-12-12T09:17:32.738Z,99.90
2018-12-12T09:20:35.961Z,99.90
2018-12-12T09:23:39.239Z,99.90
2018-12-12T09:26:42.449Z,99.90
2018-12-12T09:29:45.723Z,99.90
2018-12-12T09:32:48.958Z,99.80
2018-12-12T09:35:52.204Z,99.80
2018-12-12T09:38:55.614Z,99.90
2018-12-12T09:41:59.236Z,99.90
2018-12-12T09:45:02.619Z,99.90
2018-12-12T09:48:05.921Z,99.90
2018-12-12T09:51:09.227Z,99.80
2018-12-12T09:54:12.528Z,99.50
2018-12-12T09:57:15.809Z,99.90
2018-12-12T10:00:19.028Z,99.90
2018-12-12T10:03:22.256Z,99.90
2018-12-12T10:06:25.475Z,99.90
2018-12-12T10:09:29.114Z,99.90
2018-12-12T10:12:32.317Z,99.90
2018-12-12T10:15:35.566Z,99.90
2018-12-12T10:18:38.905Z,99.90
2018-12-12T10:21:42.241Z,99.90
2018-12-12T10:24:45.468Z,99.90
2018-12-12T10:27:49.321Z,99.90
2018-12-12T10:30:52.619Z,99.90
2018-12-12T10:33:55.900Z,99.90
2018-12-12T10:36:59.125Z,99.90
2018-12-12T10:40:02.396Z,99.90
2018-12-12T10:43:05.894Z,99.90
2018-12-12T10:46:09.180Z,99.90
2018-12-12T10:49:12.576Z,99.90
2018-12-12T10:52:16.000Z,99.70
2018-12-12T10:55:19.290Z,99.90
2018-12-12T10:58:22.501Z,99.70
2018-12-12T11:04:50.485Z,99.90
2018-12-12T11:07:54.652Z,99.70
2018-12-12T11:10:57.984Z,99.70
2018-12-12T11:14:01.211Z,99.80
2018-12-12T11:17:04.480Z,99.30
2018-12-12T11:20:07.821Z,99.60
2018-12-12T11:23:11.192Z,99.60
2018-12-12T11:26:14.464Z,99.20
2018-12-12T11:29:17.690Z,98.30
2018-12-12T11:32:20.971Z,98.50
2018-12-12T11:35:24.985Z,99.10
2018-12-12T11:38:28.217Z,99.10
2018-12-12T11:41:31.477Z,98.90
2018-12-12T11:44:35.316Z,98.80
2018-12-12T11:47:38.869Z,98.70
2018-12-12T11:50:42.128Z,98.30
2018-12-12T11:53:46.405Z,97.90
2018-12-12T11:56:49.680Z,98.10
2018-12-12T11:59:53.712Z,98.30
2018-12-12T12:02:57.665Z,98.30
2018-12-12T12:06:01.529Z,98.00
2018-12-12T12:09:06.946Z,97.70
2018-12-12T12:12:10.485Z,98.30
2018-12-12T12:15:13.996Z,97.70
2018-12-12T12:18:18.040Z,97.60
2018-12-12T12:21:21.407Z,96.60
2018-12-12T12:24:24.690Z,96.90
2018-12-12T12:27:28.408Z,97.80
2018-12-12T12:30:31.668Z,98.10
2018-12-12T12:33:35.195Z,98.00
2018-12-12T12:36:38.506Z,98.40
2018-12-12T12:39:42.673Z,98.80
2018-12-12T12:42:45.900Z,98.30
2018-12-12T12:45:49.717Z,98.00
2018-12-12T12:48:53.537Z,98.00
2018-12-12T12:51:56.816Z,97.40
2018-12-12T12:55:00.121Z,98.20
2018-12-12T12:58:03.780Z,98.10
2018-12-12T13:01:07.647Z,98.30
2018-12-12T13:04:10.948Z,98.60
2018-12-12T13:07:14.160Z,98.50
2018-12-12T13:10:17.541Z,98.00
2018-12-12T13:13:21.356Z,97.50
2018-12-12T13:16:25.718Z,97.30
2018-12-12T13:19:28.965Z,97.50
2018-12-12T13:22:32.314Z,97.80
2018-12-12T13:25:35.561Z,97.00
2018-12-12T13:28:39.867Z,96.20
2018-12-12T13:31:43.117Z,95.90
2018-12-12T13:34:46.475Z,95.30
2018-12-12T13:37:49.760Z,95.80
2018-12-12T13:40:53.132Z,95.90
2018-12-12T13:43:56.460Z,96.30
2018-12-12T13:46:59.747Z,96.80
2018-12-12T13:50:03.511Z,97.30
2018-12-12T13:53:06.837Z,97.40
2018-12-12T13:56:11.185Z,97.60
2018-12-12T13:59:14.409Z,97.60
2018-12-12T14:02:17.633Z,97.60
2018-12-12T14:05:21.584Z,97.40
2018-12-12T14:08:25.360Z,97.30
2018-12-12T14:11:28.692Z,97.30
2018-12-12T14:14:32.001Z,97.00
2018-12-12T14:17:35.896Z,96.80
2018-12-12T14:20:39.295Z,97.20
2018-12-12T14:23:42.604Z,97.10
2018-12-12T14:26:45.888Z,96.90
2018-12-12T14:29:49.184Z,96.80
2018-12-12T14:32:52.485Z,96.70
2018-12-12T14:36:01.028Z,96.50
2018-12-12T14:39:01.001Z,96.80
2018-12-12T14:42:04.320Z,96.50
2018-12-12T14:45:08.387Z,96.20
2018-12-12T14:48:11.640Z,96.30
2018-12-12T14:51:14.861Z,96.30
2018-12-12T14:54:18.436Z,96.60
2018-12-12T14:57:22.029Z,96.50
2018-12-12T15:00:25.440Z,96.50
2018-12-12T15:03:29.345Z,96.40
2018-12-12T15:06:32.573Z,96.70
2018-12-12T15:09:35.841Z,96.70
2018-12-12T15:12:39.132Z,96.70
2018-12-12T15:15:42.751Z,96.70
2018-12-12T15:18:46.657Z,96.70
2018-12-12T15:21:50.757Z,96.80
2018-12-12T15:24:54.083Z,97.00
2018-12-12T15:27:57.474Z,97.10
2018-12-12T15:31:00.869Z,97.30
2018-12-12T15:34:04.360Z,97.30
2018-12-12T15:37:07.700Z,97.40
2018-12-12T15:40:11.079Z,97.00
2018-12-12T15:43:14.356Z,96.80
2018-12-12T15:46:17.673Z,97.10
2018-12-12T15:49:20.872Z,97.30
2018-12-12T15:52:24.576Z,97.90
2018-12-12T15:55:27.894Z,97.90
2018-12-12T15:58:31.272Z,98.00
2018-12-12T16:01:35.277Z,98.30
2018-12-12T16:04:38.670Z,98.40
2018-12-12T16:07:41.972Z,98.20
2018-12-12T16:10:45.275Z,98.20
2018-12-12T16:13:48.561Z,98.20
2018-12-12T16:16:51.855Z,98.20
2018-12-12T16:19:55.171Z,98.10
2018-12-12T16:22:58.559Z,98.00
2018-12-12T16:26:01.862Z,98.40
2018-12-12T16:29:05.276Z,98.60
2018-12-12T16:32:08.549Z,98.90
2018-12-12T16:35:12.467Z,98.80
2018-12-12T16:38:15.930Z,98.90
2018-12-12T16:41:19.466Z,99.00
2018-12-12T16:44:23.479Z,98.90
2018-12-12T16:47:27.495Z,98.90
2018-12-12T16:50:30.792Z,99.10
2018-12-12T16:53:34.191Z,99.30
2018-12-12T16:56:37.412Z,99.20
2018-12-12T16:59:40.696Z,99.20
2018-12-12T17:02:44.710Z,99.20
2018-12-12T17:05:47.917Z,99.30
2018-12-12T17:08:51.201Z,99.10
2018-12-12T17:11:54.489Z,99.10
2018-12-12T17:14:57.781Z,99.10
2018-12-12T17:18:01.077Z,99.30
2018-12-12T17:21:04.485Z,99.30
2018-12-12T17:24:07.876Z,99.10
2018-12-12T17:27:11.701Z,99.30
2018-12-12T17:30:15.466Z,99.20
2018-12-12T17:33:19.711Z,98.90
2018-12-12T17:36:23.008Z,98.90
2018-12-12T17:39:26.306Z,98.90
2018-12-12T17:42:29.707Z,98.80
2018-12-12T17:45:32.936Z,98.50
2018-12-12T17:48:36.221Z,98.80
2018-12-12T17:51:39.603Z,98.50
2018-12-12T17:54:42.816Z,98.40
2018-12-12T17:57:46.048Z,97.80
2018-12-12T18:00:49.411Z,98.60
2018-12-12T18:03:53.212Z,98.70
2018-12-12T18:06:56.492Z,98.90
2018-12-12T18:09:59.796Z,98.80
2018-12-12T18:13:03.010Z,98.70
2018-12-12T18:16:06.765Z,98.60
2018-12-12T18:19:10.124Z,98.40
2018-12-12T18:22:13.411Z,98.20
2018-12-12T18:25:16.703Z,98.10
2018-12-12T18:28:19.912Z,97.90
2018-12-12T18:31:23.133Z,97.70
2018-12-12T18:34:26.396Z,97.90
2018-12-12T18:37:29.686Z,98.10
2018-12-12T18:40:32.927Z,98.10
2018-12-12T18:43:36.144Z,97.70
2018-12-12T18:46:39.411Z,98.00
2018-12-12T18:49:42.772Z,97.80
2018-12-12T18:52:46.010Z,97.80
2018-12-12T18:55:49.271Z,97.60
2018-12-12T18:58:52.548Z,97.00
2018-12-12T19:01:57.067Z,96.80
2018-12-12T19:05:00.444Z,96.30
2018-12-12T19:08:04.445Z,96.60
2018-12-12T19:11:07.704Z,96.50
2018-12-12T19:14:10.948Z,96.40
2018-12-12T19:17:14.260Z,96.50
2018-12-12T19:20:17.781Z,96.40
2018-12-12T19:23:21.164Z,96.30
2018-12-12T19:26:24.411Z,96.50
2018-12-12T19:29:27.661Z,96.30
2018-12-12T19:32:30.867Z,96.00
2018-12-12T19:35:34.894Z,96.00
2018-12-12T19:38:38.393Z,95.90
2018-12-12T19:41:41.596Z,95.80
2018-12-12T19:44:44.886Z,95.90
2018-12-12T19:47:48.113Z,95.90
2018-12-12T19:50:51.378Z,96.30
2018-12-12T19:53:54.608Z,95.70
2018-12-12T19:56:57.861Z,95.60
2018-12-12T20:00:01.172Z,95.80
2018-12-12T20:03:04.449Z,96.30
2018-12-12T20:06:07.670Z,96.20
2018-12-12T20:09:10.911Z,96.60
2018-12-12T20:12:14.123Z,96.30
2018-12-12T20:15:22.942Z,96.30
2018-12-12T20:18:26.187Z,96.50
2018-12-12T20:21:29.461Z,96.60
2018-12-12T20:24:32.869Z,97.00
2018-12-12T20:27:36.072Z,97.30
2018-12-12T20:30:39.361Z,97.70
2018-12-12T20:33:42.570Z,97.40
2018-12-12T20:36:45.817Z,97.40
2018-12-12T20:39:49.031Z,97.30
2018-12-12T20:42:52.272Z,97.50
2018-12-12T20:45:55.524Z,97.70
2018-12-12T20:48:58.749Z,97.80
2018-12-12T20:52:02.064Z,98.20
2018-12-12T20:55:05.430Z,98.90
2018-12-12T20:58:08.650Z,98.80
2018-12-12T21:01:11.921Z,98.80
2018-12-12T21:04:15.162Z,98.70
2018-12-12T21:07:18.396Z,98.80
2018-12-12T21:10:22.946Z,98.80
2018-12-12T21:13:26.477Z,98.70
2018-12-12T21:16:29.863Z,98.70
2018-12-12T21:19:33.533Z,98.80
2018-12-12T21:22:36.790Z,98.60
2018-12-12T21:25:40.469Z,98.80
2018-12-12T21:28:43.774Z,98.70
2018-12-12T21:31:46.996Z,98.70
2018-12-12T21:34:50.219Z,98.90
2018-12-12T21:37:53.536Z,99.00
2018-12-12T21:40:56.736Z,98.90
2018-12-12T21:44:00.003Z,98.80
2018-12-12T21:47:03.337Z,98.60
2018-12-12T21:50:07.408Z,98.40
2018-12-12T21:53:10.630Z,98.30
2018-12-12T21:56:14.033Z,98.70
2018-12-12T21:59:17.233Z,98.80
2018-12-12T22:02:20.581Z,98.80
2018-12-12T22:05:23.840Z,98.60
2018-12-12T22:08:27.244Z,98.30
2018-12-12T22:11:30.519Z,98.20
2018-12-12T22:14:33.724Z,98.20
2018-12-12T22:17:36.948Z,98.10
2018-12-12T22:20:40.221Z,98.30
2018-12-12T22:23:43.492Z,98.10
2018-12-12T22:26:46.729Z,97.80
2018-12-12T22:29:50.103Z,98.00
2018-12-12T22:32:53.353Z,97.90
2018-12-12T22:35:56.760Z,98.30
2018-12-12T22:38:59.960Z,98.50
2018-12-12T22:42:03.376Z,98.30
2018-12-12T22:45:06.754Z,98.20
2018-12-12T22:48:10.112Z,98.20
2018-12-12T22:51:13.364Z,98.10
2018-12-12T22:54:16.675Z,98.00
2018-12-12T22:57:19.896Z,97.80
2018-12-12T23:00:28.804Z,97.60
2018-12-12T23:03:32.118Z,97.50
2018-12-12T23:06:35.414Z,97.40
2018-12-12T23:09:38.656Z,97.30
2018-12-12T23:12:41.925Z,97.30
2018-12-12T23:15:45.166Z,97.30
2018-12-12T23:18:48.406Z,97.30
2018-12-12T23:21:51.637Z,97.60
2018-12-12T23:24:54.874Z,97.20
2018-12-12T23:27:58.123Z,97.40
2018-12-12T23:31:01.368Z,97.50
2018-12-12T23:34:04.664Z,97.70
2018-12-12T23:37:07.886Z,97.80
2018-12-12T23:40:11.152Z,97.70
2018-12-12T23:43:14.357Z,97.80
2018-12-12T23:46:17.609Z,97.80
2018-12-12T23:49:20.854Z,97.70
2018-12-12T23:52:24.206Z,97.70
2018-12-12T23:55:27.516Z,97.60
2018-12-12T23:58:30.744Z,97.50
